createdAt,value
2018-03-28T00:01:29.448Z,31.20
2018-03-28T00:03:56.972Z,27.42
2018-03-28T00:06:24.528Z,26.62
2018-03-28T00:08:52.821Z,30.92
2018-03-28T00:11:21.188Z,29.02
2018-03-28T00:13:50.301Z,30.12
2018-03-28T00:16:17.840Z,29.27
2018-03-28T00:18:46.176Z,28.08
2018-03-28T00:21:13.688Z,29.98
2018-03-28T00:23:41.215Z,29.80
2018-03-28T00:26:08.738Z,27.23
2018-03-28T00:28:37.046Z,28.48
2018-03-28T00:31:04.594Z,29.55
2018-03-28T00:33:32.145Z,28.00
2018-03-28T00:35:59.674Z,29.20
2018-03-28T00:38:27.220Z,28.12
2018-03-28T00:40:54.764Z,26.33
2018-03-28T00:43:22.281Z,26.42
2018-03-28T00:45:49.839Z,27.00
2018-03-28T00:48:17.356Z,27.95
2018-03-28T00:50:44.880Z,27.48
2018-03-28T00:53:12.392Z,26.65
2018-03-28T00:55:39.913Z,25.67
2018-03-28T00:58:07.832Z,26.77
2018-03-28T01:00:35.363Z,27.33
2018-03-28T01:03:02.881Z,28.60
2018-03-28T01:05:30.428Z,31.62
2018-03-28T01:07:58.066Z,29.15
2018-03-28T01:10:25.618Z,35.10
2018-03-28T01:12:53.167Z,37.55
2018-03-28T01:15:20.688Z,32.13
2018-03-28T01:17:49.000Z,30.10
2018-03-28T01:20:16.516Z,31.17
2018-03-28T01:22:44.063Z,29.67
2018-03-28T01:25:11.602Z,33.10
2018-03-28T01:27:39.109Z,34.20
2018-03-28T01:30:06.657Z,32.47
2018-03-28T01:32:34.939Z,33.17
2018-03-28T01:35:03.226Z,28.58
2018-03-28T01:37:30.782Z,27.55
2018-03-28T01:39:58.958Z,35.88
2018-03-28T01:42:26.507Z,37.88
2018-03-28T01:44:54.020Z,36.28
2018-03-28T01:47:21.528Z,29.45
2018-03-28T01:49:49.076Z,30.30
2018-03-28T01:52:16.622Z,29.73
2018-03-28T01:54:45.769Z,36.97
2018-03-28T01:57:13.304Z,29.23
2018-03-28T01:59:40.827Z,37.83
2018-03-28T02:02:08.369Z,33.67
2018-03-28T02:04:35.880Z,39.88
2018-03-28T02:07:03.424Z,34.83
2018-03-28T02:09:31.080Z,38.30
2018-03-28T02:11:59.357Z,40.22
2018-03-28T02:14:27.633Z,34.38
2018-03-28T02:16:55.915Z,35.55
2018-03-28T02:19:23.879Z,32.58
2018-03-28T02:21:51.384Z,31.15
2018-03-28T02:24:18.937Z,30.42
2018-03-28T02:26:46.456Z,26.90
2018-03-28T02:29:13.980Z,28.17
2018-03-28T02:31:41.513Z,30.98
2018-03-28T02:34:09.049Z,29.02
2018-03-28T02:36:37.349Z,26.58
2018-03-28T02:39:05.669Z,32.17
2018-03-28T02:41:33.945Z,34.05
2018-03-28T02:44:02.261Z,25.12
2018-03-28T02:46:29.864Z,29.02
2018-03-28T02:48:57.380Z,26.65
2018-03-28T02:51:24.917Z,26.52
2018-03-28T02:53:52.434Z,34.33
2018-03-28T02:56:19.990Z,32.65
2018-03-28T02:58:49.006Z,31.77
2018-03-28T03:01:17.317Z,39.78
2018-03-28T03:03:44.861Z,30.85
2018-03-28T03:06:12.393Z,29.37
2018-03-28T03:08:39.936Z,30.12
2018-03-28T03:11:07.441Z,30.05
2018-03-28T03:13:35.041Z,30.23
2018-03-28T03:16:02.583Z,25.88
2018-03-28T03:18:30.113Z,23.35
2018-03-28T03:20:57.662Z,22.37
2018-03-28T03:23:25.175Z,23.35
2018-03-28T03:25:52.883Z,23.80
2018-03-28T03:28:21.182Z,26.62
2018-03-28T03:30:48.696Z,23.48
2018-03-28T03:33:16.214Z,28.83
2018-03-28T03:35:43.745Z,27.13
2018-03-28T03:38:11.297Z,28.58
2018-03-28T03:40:38.844Z,28.70
2018-03-28T03:43:07.153Z,33.22
2018-03-28T03:45:34.704Z,33.10
2018-03-28T03:48:02.216Z,26.65
2018-03-28T03:50:29.765Z,29.95
2018-03-28T03:52:57.271Z,32.20
2018-03-28T03:55:24.812Z,30.25
2018-03-28T03:57:53.113Z,29.77
2018-03-28T04:00:20.624Z,31.17
2018-03-28T04:02:48.164Z,31.40
2018-03-28T04:05:15.704Z,31.37
2018-03-28T04:07:43.210Z,30.62
2018-03-28T04:10:10.744Z,27.65
2018-03-28T04:12:38.256Z,30.90
2018-03-28T04:15:06.553Z,27.13
2018-03-28T04:17:34.863Z,30.70
2018-03-28T04:20:02.392Z,32.45
2018-03-28T04:22:29.902Z,29.80
2018-03-28T04:24:57.412Z,29.92
2018-03-28T04:27:24.939Z,29.75
2018-03-28T04:29:52.455Z,29.60
2018-03-28T04:32:19.992Z,30.67
2018-03-28T04:34:47.536Z,30.70
2018-03-28T04:37:15.064Z,25.60
2018-03-28T04:39:43.365Z,27.75
2018-03-28T04:42:10.876Z,29.12
2018-03-28T04:44:38.459Z,28.15
2018-03-28T04:47:06.731Z,29.70
2018-03-28T04:49:35.024Z,26.87
2018-03-28T04:52:02.580Z,28.62
2018-03-28T04:54:30.087Z,27.98
2018-03-28T04:56:57.628Z,28.48
2018-03-28T04:59:25.197Z,26.27
2018-03-28T05:01:52.752Z,24.52
2018-03-28T05:04:20.279Z,25.58
2018-03-28T05:06:47.805Z,24.40
2018-03-28T05:09:16.162Z,23.52
2018-03-28T05:11:43.725Z,23.27
2018-03-28T05:14:11.257Z,23.17
2018-03-28T05:16:38.796Z,22.45
2018-03-28T05:19:06.333Z,25.10
2018-03-28T05:21:33.867Z,23.33
2018-03-28T05:24:01.376Z,24.98
2018-03-28T05:26:28.914Z,23.77
2018-03-28T05:28:56.447Z,23.90
2018-03-28T05:31:23.962Z,22.77
2018-03-28T05:33:51.491Z,22.08
2018-03-28T05:36:19.796Z,21.30
2018-03-28T05:38:47.380Z,21.67
2018-03-28T05:41:14.921Z,19.60
2018-03-28T05:43:42.461Z,18.83
2018-03-28T05:46:10.006Z,19.48
2018-03-28T05:48:38.284Z,15.32
2018-03-28T05:51:05.813Z,17.80
2018-03-28T05:53:33.327Z,14.75
2018-03-28T05:56:00.874Z,15.60
2018-03-28T05:58:28.418Z,15.18
2018-03-28T06:00:55.969Z,13.07
2018-03-28T06:03:23.515Z,15.95
2018-03-28T06:05:51.823Z,13.07
2018-03-28T06:08:19.374Z,13.13
2018-03-28T06:10:47.136Z,14.27
2018-03-28T06:13:14.660Z,13.85
2018-03-28T06:15:42.195Z,11.75
2018-03-28T06:18:09.740Z,12.07
2018-03-28T06:20:37.252Z,12.80
2018-03-28T06:23:04.799Z,13.32
2018-03-28T06:25:32.345Z,12.95
2018-03-28T06:27:59.864Z,13.88
2018-03-28T06:30:27.373Z,12.98
2018-03-28T06:32:54.922Z,15.73
2018-03-28T06:35:22.468Z,13.68
2018-03-28T06:37:50.021Z,13.90
2018-03-28T06:40:17.533Z,12.90
2018-03-28T06:42:45.105Z,14.20
2018-03-28T06:45:12.717Z,14.05
2018-03-28T06:47:40.241Z,14.18
2018-03-28T06:50:07.797Z,12.80
2018-03-28T06:52:35.367Z,14.25
2018-03-28T06:55:02.875Z,10.73
2018-03-28T06:57:30.384Z,11.25
2018-03-28T06:59:57.924Z,12.02
2018-03-28T07:02:25.452Z,10.48
2018-03-28T07:04:53.134Z,8.50
2018-03-28T07:07:20.675Z,9.32
2018-03-28T07:09:48.951Z,12.65
2018-03-28T07:12:17.251Z,10.57
2018-03-28T07:14:44.797Z,12.00
2018-03-28T07:17:12.329Z,11.07
2018-03-28T07:19:39.840Z,9.88
2018-03-28T07:22:07.359Z,10.55
2018-03-28T07:24:34.872Z,10.50
2018-03-28T07:27:02.406Z,12.25
2018-03-28T07:29:29.953Z,11.50
2018-03-28T07:31:57.475Z,10.15
2018-03-28T07:34:25.773Z,9.23
2018-03-28T07:36:53.326Z,8.70
2018-03-28T07:39:20.844Z,10.80
2018-03-28T07:41:48.361Z,10.35
2018-03-28T07:44:15.874Z,8.70
2018-03-28T07:46:43.393Z,9.88
2018-03-28T07:49:10.938Z,9.63
2018-03-28T07:51:38.521Z,9.30
2018-03-28T07:54:06.177Z,8.85
2018-03-28T07:56:33.688Z,7.80
2018-03-28T07:59:01.964Z,7.62
2018-03-28T08:01:30.270Z,7.45
2018-03-28T08:03:57.819Z,7.90
2018-03-28T08:06:25.397Z,7.22
2018-03-28T08:08:52.959Z,7.43
2018-03-28T08:11:20.507Z,8.57
2018-03-28T08:13:48.278Z,7.10
2018-03-28T08:16:15.817Z,5.50
2018-03-28T08:18:43.324Z,6.10
2018-03-28T08:21:10.825Z,5.15
2018-03-28T08:23:38.378Z,6.62
2018-03-28T08:26:06.680Z,6.47
2018-03-28T08:28:34.219Z,5.97
2018-03-28T08:31:01.888Z,6.05
2018-03-28T08:33:29.584Z,6.40
2018-03-28T08:35:57.939Z,6.30
2018-03-28T08:38:25.469Z,7.15
2018-03-28T08:40:53.021Z,7.05
2018-03-28T08:43:21.300Z,6.85
2018-03-28T08:45:50.012Z,7.30
2018-03-28T08:48:17.520Z,6.15
2018-03-28T08:50:45.081Z,6.25
2018-03-28T08:53:13.454Z,6.45
2018-03-28T08:55:41.237Z,6.68
2018-03-28T08:58:08.933Z,8.50
2018-03-28T09:00:36.446Z,6.22
2018-03-28T09:03:03.959Z,6.00
2018-03-28T09:05:31.502Z,6.78
2018-03-28T09:07:59.090Z,6.32
2018-03-28T09:10:26.641Z,5.45
2018-03-28T09:12:54.217Z,7.65
2018-03-28T09:15:21.772Z,6.65
2018-03-28T09:17:49.345Z,7.90
2018-03-28T09:20:16.893Z,7.55
2018-03-28T09:22:44.411Z,8.70
2018-03-28T09:25:12.480Z,8.95
2018-03-28T09:27:40.065Z,7.82
2018-03-28T09:30:07.853Z,7.60
2018-03-28T09:32:35.377Z,7.80
2018-03-28T09:35:02.938Z,7.90
2018-03-28T09:37:30.655Z,7.57
2018-03-28T09:39:59.005Z,6.80
2018-03-28T09:42:26.543Z,6.40
2018-03-28T09:44:54.084Z,7.90
2018-03-28T09:47:21.777Z,7.32
2018-03-28T09:49:49.326Z,6.90
2018-03-28T09:52:16.862Z,7.18
2018-03-28T09:54:44.439Z,7.00
2018-03-28T09:57:11.983Z,6.65
2018-03-28T09:59:39.534Z,6.22
2018-03-28T10:02:10.994Z,6.00
2018-03-28T10:04:44.280Z,4.90
2018-03-28T10:07:11.795Z,6.05
2018-03-28T10:09:39.325Z,6.28
2018-03-28T10:12:06.844Z,6.32
2018-03-28T10:14:34.676Z,6.32
2018-03-28T10:17:02.204Z,6.62
2018-03-28T10:19:29.712Z,6.22
2018-03-28T10:21:57.239Z,6.32
2018-03-28T10:24:24.776Z,5.75
2018-03-28T10:26:52.292Z,6.05
2018-03-28T10:29:19.841Z,5.93
2018-03-28T10:31:48.900Z,6.37
2018-03-28T10:34:16.407Z,5.50
2018-03-28T10:36:43.960Z,6.62
2018-03-28T10:39:11.464Z,6.47
2018-03-28T10:41:39.004Z,5.25
2018-03-28T10:44:06.544Z,6.28
2018-03-28T10:46:34.845Z,6.40
2018-03-28T10:49:02.360Z,6.45
2018-03-28T10:51:29.885Z,6.45
2018-03-28T10:53:57.411Z,6.62
2018-03-28T10:56:24.928Z,7.12
2018-03-28T10:58:52.525Z,6.30
2018-03-28T11:01:20.037Z,6.82
2018-03-28T11:03:47.548Z,6.30
2018-03-28T11:06:15.076Z,6.75
2018-03-28T11:08:42.585Z,5.95
2018-03-28T11:11:10.098Z,6.00
2018-03-28T11:13:37.645Z,6.43
2018-03-28T11:16:05.923Z,5.85
2018-03-28T11:18:33.448Z,6.40
2018-03-28T11:21:01.044Z,5.85
2018-03-28T11:23:28.564Z,6.82
2018-03-28T11:25:56.177Z,5.50
2018-03-28T11:28:23.790Z,5.80
2018-03-28T11:30:51.326Z,5.70
2018-03-28T11:33:18.888Z,5.65
2018-03-28T11:35:46.446Z,5.53
2018-03-28T11:38:13.968Z,7.00
2018-03-28T11:40:41.492Z,6.57
2018-03-28T11:43:09.022Z,6.10
2018-03-28T11:45:36.590Z,5.50
2018-03-28T11:48:04.171Z,5.55
2018-03-28T11:50:31.713Z,6.35
2018-03-28T11:52:59.306Z,4.95
2018-03-28T11:55:26.784Z,5.80
2018-03-28T11:57:55.339Z,5.47
2018-03-28T12:00:22.880Z,6.47
2018-03-28T12:02:50.421Z,5.20
2018-03-28T12:05:17.936Z,6.53
2018-03-28T12:07:45.443Z,6.80
2018-03-28T12:10:12.996Z,5.00
2018-03-28T12:12:40.594Z,4.60
2018-03-28T12:15:08.137Z,3.97
2018-03-28T12:17:35.649Z,4.22
2018-03-28T12:20:03.198Z,4.30
2018-03-28T12:22:31.478Z,4.12
2018-03-28T12:24:59.784Z,4.60
2018-03-28T12:27:27.342Z,4.40
2018-03-28T12:29:54.956Z,5.15
2018-03-28T12:32:22.465Z,4.55
2018-03-28T12:34:50.009Z,3.75
2018-03-28T12:37:17.559Z,3.95
2018-03-28T12:39:45.108Z,3.75
2018-03-28T12:42:13.400Z,4.32
2018-03-28T12:44:40.953Z,5.70
2018-03-28T12:47:08.493Z,3.50
2018-03-28T12:49:36.105Z,4.35
2018-03-28T12:52:03.624Z,4.40
2018-03-28T12:54:31.153Z,3.90
2018-03-28T12:56:58.666Z,2.97
2018-03-28T12:59:26.172Z,3.97
2018-03-28T13:01:53.704Z,4.12
2018-03-28T13:04:21.253Z,3.40
2018-03-28T13:06:48.768Z,4.18
2018-03-28T13:09:16.316Z,4.10
2018-03-28T13:11:43.832Z,4.55
2018-03-28T13:14:11.382Z,3.67
2018-03-28T13:16:39.045Z,2.83
2018-03-28T13:19:06.621Z,3.58
2018-03-28T13:21:34.161Z,4.35
2018-03-28T13:24:01.705Z,2.92
2018-03-28T13:26:29.216Z,3.22
2018-03-28T13:28:57.501Z,3.75
2018-03-28T13:31:25.021Z,4.50
2018-03-28T13:33:52.552Z,3.40
2018-03-28T13:36:20.072Z,2.95
2018-03-28T13:38:47.646Z,3.70
2018-03-28T13:41:15.935Z,3.45
2018-03-28T13:43:44.218Z,3.50
2018-03-28T13:46:11.758Z,3.42
2018-03-28T13:48:39.281Z,3.37
2018-03-28T13:51:06.943Z,3.55
2018-03-28T13:53:34.462Z,3.83
2018-03-28T13:56:02.058Z,4.32
2018-03-28T13:58:29.576Z,3.97
2018-03-28T14:00:57.093Z,4.03
2018-03-28T14:03:26.108Z,3.75
2018-03-28T14:05:54.416Z,4.05
2018-03-28T14:08:21.935Z,3.67
2018-03-28T14:10:49.516Z,3.20
2018-03-28T14:13:17.835Z,4.00
2018-03-28T14:15:45.360Z,3.53
2018-03-28T14:18:12.916Z,4.03
2018-03-28T14:20:40.464Z,3.20
2018-03-28T14:23:08.041Z,4.07
2018-03-28T14:25:35.606Z,4.22
2018-03-28T14:28:03.115Z,4.10
2018-03-28T14:30:30.894Z,3.72
2018-03-28T14:32:58.504Z,3.95
2018-03-28T14:35:26.083Z,4.40
2018-03-28T14:37:53.612Z,3.92
2018-03-28T14:40:21.155Z,4.55
2018-03-28T14:42:54.588Z,4.47
2018-03-28T14:45:16.971Z,4.90
2018-03-28T14:47:45.277Z,4.40
2018-03-28T14:50:12.787Z,4.72
2018-03-28T14:52:40.325Z,4.35
2018-03-28T14:55:07.841Z,7.12
2018-03-28T14:57:35.352Z,6.18
2018-03-28T15:00:02.930Z,6.70
2018-03-28T15:02:30.443Z,6.20
2018-03-28T15:04:57.986Z,4.97
2018-03-28T15:07:25.502Z,6.25
2018-03-28T15:09:53.014Z,6.18
2018-03-28T15:12:20.560Z,6.43
2018-03-28T15:14:48.081Z,6.32
2018-03-28T15:17:16.367Z,6.00
2018-03-28T15:19:44.688Z,5.45
2018-03-28T15:22:12.241Z,6.10
2018-03-28T15:24:39.785Z,5.20
2018-03-28T15:27:07.365Z,6.40
2018-03-28T15:29:34.873Z,5.00
2018-03-28T15:32:02.437Z,4.97
2018-03-28T15:34:30.764Z,5.70
2018-03-28T15:36:58.325Z,4.32
2018-03-28T15:39:25.938Z,4.30
2018-03-28T15:41:53.411Z,4.40
2018-03-28T15:44:20.993Z,4.55
2018-03-28T15:46:49.342Z,5.22
2018-03-28T15:49:16.944Z,5.10
2018-03-28T15:51:44.481Z,5.45
2018-03-28T15:54:12.006Z,5.35
2018-03-28T15:56:39.557Z,6.32
2018-03-28T15:59:07.906Z,5.95
2018-03-28T16:01:35.375Z,5.82
2018-03-28T16:04:03.028Z,6.25
2018-03-28T16:06:30.541Z,6.03
2018-03-28T16:08:58.073Z,5.10
2018-03-28T16:11:26.374Z,5.85
2018-03-28T16:13:53.921Z,4.93
2018-03-28T16:16:21.620Z,7.12
2018-03-28T16:18:49.234Z,5.50
2018-03-28T16:21:16.783Z,5.20
2018-03-28T16:23:45.065Z,6.22
2018-03-28T16:26:13.370Z,9.15
2018-03-28T16:28:40.913Z,8.52
2018-03-28T16:31:08.483Z,10.00
2018-03-28T16:33:36.037Z,8.25
2018-03-28T16:36:03.585Z,7.40
2018-03-28T16:38:31.865Z,7.75
2018-03-28T16:41:00.159Z,6.93
2018-03-28T16:43:28.471Z,7.43
2018-03-28T16:45:56.023Z,6.60
2018-03-28T16:48:25.302Z,7.15
2018-03-28T16:50:52.810Z,5.25
2018-03-28T16:53:20.324Z,5.28
2018-03-28T16:55:47.876Z,5.05
2018-03-28T16:58:15.375Z,6.05
2018-03-28T17:00:42.892Z,6.45
2018-03-28T17:03:10.436Z,5.10
2018-03-28T17:05:37.996Z,6.20
2018-03-28T17:08:05.572Z,5.57
2018-03-28T17:10:33.160Z,6.25
2018-03-28T17:13:00.663Z,5.75
2018-03-28T17:15:28.190Z,6.60
2018-03-28T17:17:55.715Z,5.45
2018-03-28T17:20:23.252Z,5.10
2018-03-28T17:22:50.772Z,5.00
2018-03-28T17:25:18.322Z,6.10
2018-03-28T17:27:45.897Z,7.18
2018-03-28T17:30:13.404Z,5.37
2018-03-28T17:32:40.933Z,3.60
2018-03-28T17:35:08.543Z,3.08
2018-03-28T17:37:36.093Z,5.97
2018-03-28T17:40:03.647Z,5.65
2018-03-28T17:42:31.268Z,4.30
2018-03-28T17:44:58.821Z,3.55
2018-03-28T17:47:26.353Z,4.15
2018-03-28T17:49:53.852Z,3.40
2018-03-28T17:52:22.142Z,3.30
2018-03-28T17:54:49.701Z,2.95
2018-03-28T17:57:17.263Z,3.10
2018-03-28T17:59:44.809Z,2.37
2018-03-28T18:02:13.360Z,2.40
2018-03-28T18:04:40.921Z,3.05
2018-03-28T18:07:08.478Z,2.30
2018-03-28T18:09:36.052Z,2.28
2018-03-28T18:12:03.574Z,2.37
2018-03-28T18:14:31.120Z,2.30
2018-03-28T18:16:58.679Z,2.50
2018-03-28T18:19:26.286Z,3.90
2018-03-28T18:21:53.798Z,3.90
2018-03-28T18:24:22.251Z,2.95
2018-03-28T18:26:49.820Z,2.50
2018-03-28T18:29:18.108Z,2.47
2018-03-28T18:31:45.643Z,2.10
2018-03-28T18:34:13.934Z,1.85
2018-03-28T18:36:41.499Z,2.15
2018-03-28T18:39:09.151Z,2.62
2018-03-28T18:41:36.689Z,1.80
2018-03-28T18:44:04.246Z,2.40
2018-03-28T18:46:31.790Z,1.95
2018-03-28T18:48:59.321Z,2.00
2018-03-28T18:51:26.834Z,1.58
2018-03-28T18:53:54.342Z,2.53
2018-03-28T18:56:21.968Z,2.00
2018-03-28T18:58:49.475Z,2.62
2018-03-28T19:01:17.030Z,2.62
2018-03-28T19:03:44.578Z,1.95
2018-03-28T19:06:12.090Z,2.90
2018-03-28T19:08:40.484Z,2.95
2018-03-28T19:11:08.059Z,3.58
2018-03-28T19:13:35.609Z,3.30
2018-03-28T19:16:03.149Z,2.20
2018-03-28T19:18:30.709Z,2.40
2018-03-28T19:20:59.024Z,2.42
2018-03-28T19:23:26.618Z,2.67
2018-03-28T19:25:54.133Z,3.17
2018-03-28T19:28:21.680Z,3.55
2018-03-28T19:30:49.208Z,4.00
2018-03-28T19:33:17.486Z,4.37
2018-03-28T19:35:45.785Z,4.35
2018-03-28T19:38:13.368Z,3.92
2018-03-28T19:40:40.893Z,3.62
2018-03-28T19:43:09.219Z,3.60
2018-03-28T19:45:36.737Z,3.75
2018-03-28T19:48:04.294Z,4.65
2018-03-28T19:50:31.821Z,3.33
2018-03-28T19:53:00.860Z,3.97
2018-03-28T19:55:28.412Z,4.22
2018-03-28T19:57:55.974Z,4.35
2018-03-28T20:00:23.494Z,4.20
2018-03-28T20:02:51.078Z,5.07
2018-03-28T20:05:18.604Z,5.05
2018-03-28T20:07:46.119Z,4.55
2018-03-28T20:10:13.647Z,5.43
2018-03-28T20:12:41.942Z,4.90
2018-03-28T20:15:09.469Z,5.30
2018-03-28T20:17:36.998Z,5.60
2018-03-28T20:20:04.570Z,4.43
2018-03-28T20:22:32.127Z,5.50
2018-03-28T20:24:59.665Z,5.50
2018-03-28T20:27:27.228Z,5.57
2018-03-28T20:29:54.794Z,5.10
2018-03-28T20:32:22.362Z,4.93
2018-03-28T20:34:49.906Z,5.85
2018-03-28T20:37:17.481Z,5.50
2018-03-28T20:39:45.023Z,5.28
2018-03-28T20:42:12.579Z,5.10
2018-03-28T20:44:40.098Z,6.28
2018-03-28T20:47:07.612Z,5.78
2018-03-28T20:49:35.120Z,5.80
2018-03-28T20:52:02.628Z,4.93
2018-03-28T20:54:30.169Z,4.10
2018-03-28T20:56:57.682Z,3.20
2018-03-28T20:59:25.213Z,3.10
2018-03-28T21:01:52.757Z,3.17
2018-03-28T21:04:20.311Z,3.20
2018-03-28T21:06:47.846Z,2.53
2018-03-28T21:09:15.360Z,2.60
2018-03-28T21:11:42.920Z,2.70
2018-03-28T21:14:10.478Z,2.33
2018-03-28T21:16:38.022Z,2.22
2018-03-28T21:19:05.565Z,2.25
2018-03-28T21:21:33.105Z,2.42
2018-03-28T21:24:00.615Z,1.85
2018-03-28T21:26:28.891Z,1.65
2018-03-28T21:28:57.165Z,1.75
2018-03-28T21:31:25.460Z,1.80
2018-03-28T21:33:52.973Z,1.45
2018-03-28T21:36:20.487Z,2.33
2018-03-28T21:38:48.039Z,2.55
2018-03-28T21:41:15.569Z,2.03
2018-03-28T21:43:43.116Z,1.48
2018-03-28T21:46:10.653Z,1.62
2018-03-28T21:48:38.167Z,1.45
2018-03-28T21:51:05.697Z,1.20
2018-03-28T21:53:33.986Z,1.90
2018-03-28T21:56:02.291Z,1.42
2018-03-28T21:58:29.832Z,1.70
2018-03-28T22:00:57.335Z,1.45
2018-03-28T22:03:24.864Z,1.42
2018-03-28T22:05:52.403Z,1.60
2018-03-28T22:08:19.905Z,1.30
2018-03-28T22:10:47.442Z,1.77
2018-03-28T22:13:14.981Z,1.20
2018-03-28T22:15:42.490Z,1.50
2018-03-28T22:18:10.000Z,1.77
2018-03-28T22:20:39.068Z,1.90
2018-03-28T22:23:06.578Z,1.87
2018-03-28T22:25:34.086Z,1.70
2018-03-28T22:28:01.598Z,2.10
2018-03-28T22:30:29.117Z,2.00
2018-03-28T22:32:57.412Z,2.60
2018-03-28T22:35:24.924Z,1.90
2018-03-28T22:37:53.232Z,2.20
2018-03-28T22:40:20.760Z,2.40
2018-03-28T22:42:49.068Z,2.00
2018-03-28T22:45:16.612Z,2.20
2018-03-28T22:47:44.159Z,2.37
2018-03-28T22:50:12.457Z,1.95
2018-03-28T22:52:39.964Z,2.10
2018-03-28T22:55:07.508Z,2.20
2018-03-28T22:57:35.027Z,2.58
2018-03-28T23:00:03.316Z,3.00
2018-03-28T23:02:30.828Z,3.00
2018-03-28T23:04:58.356Z,3.15
2018-03-28T23:07:25.900Z,2.70
2018-03-28T23:09:53.419Z,3.40
2018-03-28T23:12:20.940Z,3.62
2018-03-28T23:14:48.497Z,4.25
2018-03-28T23:17:16.041Z,3.60
2018-03-28T23:19:43.532Z,4.12
2018-03-28T23:22:22.950Z,3.60
2018-03-28T23:24:50.476Z,3.70
2018-03-28T23:27:18.005Z,3.53
2018-03-28T23:29:46.324Z,3.28
2018-03-28T23:32:13.846Z,4.00
2018-03-28T23:34:41.345Z,3.95
2018-03-28T23:37:08.848Z,4.40
2018-03-28T23:39:37.152Z,3.85
2018-03-28T23:42:04.660Z,4.45
2018-03-28T23:44:32.202Z,3.40
2018-03-28T23:46:59.716Z,4.10
2018-03-28T23:49:27.985Z,3.83
2018-03-28T23:51:56.268Z,4.10
2018-03-28T23:54:24.532Z,4.60
2018-03-28T23:56:52.070Z,3.92
2018-03-28T23:59:19.567Z,4.12
